createdAt,value
2022-10-02T00:09:11.203Z,12.52
2022-10-02T00:29:11.179Z,12.51
2022-10-02T00:49:11.155Z,12.49
2022-10-02T01:09:11.133Z,12.48
2022-10-02T01:29:11.115Z,12.47
2022-10-02T01:49:11.094Z,12.50
2022-10-02T02:09:11.068Z,12.53
2022-10-02T02:29:11.051Z,12.53
2022-10-02T02:49:11.018Z,12.57
2022-10-02T03:09:10.995Z,12.53
2022-10-02T03:29:10.982Z,12.55
2022-10-02T03:49:10.972Z,12.64
2022-10-02T04:09:10.940Z,12.62
2022-10-02T04:29:10.910Z,12.63
2022-10-02T04:49:10.885Z,12.68
2022-10-02T05:09:10.869Z,12.76
2022-10-02T05:29:10.836Z,12.73
2022-10-02T05:49:10.815Z,12.69
2022-10-02T06:09:10.794Z,12.62
2022-10-02T06:29:10.775Z,12.49
2022-10-02T06:49:10.733Z,12.47
2022-10-02T07:09:10.725Z,12.48
2022-10-02T07:29:10.721Z,12.72
2022-10-02T07:49:10.674Z,12.99
2022-10-02T08:09:10.656Z,13.18
2022-10-02T08:29:10.613Z,13.31
2022-10-02T08:49:10.658Z,13.48
2022-10-02T09:09:10.595Z,13.59
2022-10-02T09:29:10.569Z,13.67
2022-10-02T09:49:10.569Z,13.76
2022-10-02T10:09:10.504Z,13.87
2022-10-02T10:29:10.480Z,14.00
2022-10-02T10:49:10.463Z,14.69
2022-10-02T11:09:10.439Z,14.70
2022-10-02T11:29:10.469Z,15.63
2022-10-02T11:49:10.434Z,15.68
2022-10-02T12:09:10.355Z,15.97
2022-10-02T12:29:10.327Z,16.22
2022-10-02T12:49:10.295Z,15.91
2022-10-02T13:09:10.283Z,14.90
2022-10-02T13:29:10.287Z,14.40
2022-10-02T13:49:10.245Z,14.32
2022-10-02T14:09:10.192Z,14.21
2022-10-02T14:29:10.259Z,14.16
2022-10-02T14:49:10.263Z,13.95
2022-10-02T15:09:10.135Z,13.58
2022-10-02T15:29:10.112Z,13.71
2022-10-02T15:49:10.073Z,13.47
2022-10-02T16:09:10.136Z,13.53
2022-10-02T16:29:10.019Z,13.39
2022-10-02T16:49:10.023Z,13.41
2022-10-02T17:09:10.099Z,13.31
2022-10-02T17:29:09.947Z,13.22
2022-10-02T17:49:09.946Z,13.08
2022-10-02T18:09:09.928Z,13.11
2022-10-02T18:29:09.901Z,13.01
2022-10-02T18:49:09.866Z,12.93
2022-10-02T19:09:09.900Z,12.98
2022-10-02T19:29:09.816Z,13.03
2022-10-02T19:49:09.797Z,12.96
2022-10-02T20:09:09.795Z,12.88
2022-10-02T20:29:09.747Z,12.79
2022-10-02T20:49:09.710Z,12.68
2022-10-02T21:09:09.688Z,12.64
2022-10-02T21:29:09.817Z,12.58
2022-10-02T21:49:09.641Z,12.67
2022-10-02T22:09:09.782Z,12.72
2022-10-02T22:29:09.765Z,12.56
2022-10-02T22:49:09.731Z,12.50
2022-10-02T23:09:09.698Z,12.48
2022-10-02T23:29:09.667Z,12.50
2022-10-02T23:49:09.607Z,12.32
